Overview Statistics Trail Chart Weather Telemetry Raw packets
 

This is the latest recevied weather packets stored in our database for station/object SV1JSO-13. If no packets are shown the sender has not sent any weather packets the latest 10 day(s).

<< 38 39 40 41 42 43 44 >>
Time Temp. Humidity Pressure Rain* Wind** Luminosity Snow
1788402601 29.44° C 34% 1006.7 hPa 0 mm - 0 W/m² -
1788402300 29.44° C 33% 1006.7 hPa 0 mm - 0 W/m² -
1788402000 29.44° C 33% 1006.6 hPa 0 mm - 0 W/m² -
1788401700 29.44° C 33% 1006.8 hPa 0 mm - 0 W/m² -
1788401400 29.44° C 32% 1006.7 hPa 0 mm - 0 W/m² -
1788401100 30.56° C 31% 1006.6 hPa 0 mm - 0 W/m² -
1788400800 31.11° C 29% 1006.6 hPa 0 mm - 0 W/m² -
1788400500 31.11° C 29% 1006.6 hPa 0 mm - 0 W/m² -
1788400200 30.56° C 30% 1006.6 hPa 0 mm - 0 W/m² -
1788399900 30° C 31% 1006.5 hPa 0 mm - 0 W/m² -
1788399600 30.56° C 29% 1006.7 hPa 0 mm - 0 W/m² -
1788399300 30.56° C 29% 1006.5 hPa 0 mm - 0 W/m² -
1788399000 30.56° C 28% 1006.6 hPa 0 mm - 0 W/m² -
1788398700 30.56° C 28% 1006.5 hPa 0 mm - 0 W/m² -
1788398400 31.11° C 28% 1006.8 hPa 0 mm - 0 W/m² -
1788398100 30.56° C 28% 1006.7 hPa 0 mm - 0 W/m² -
1788397800 30° C 29% 1006.6 hPa 0 mm - 0 W/m² -
1788397500 28.89° C 34% 1006.6 hPa 0 mm - 0 W/m² -
1788397200 28.33° C 37% 1006.6 hPa 0 mm - 0 W/m² -
1788396900 27.78° C 40% 1006.7 hPa 0 mm - 0 W/m² -
1788396600 27.78° C 41% 1006.7 hPa 0 mm - 0 W/m² -
1788396300 28.33° C 39% 1006.7 hPa 0 mm - 0 W/m² -
1788396000 28.89° C 38% 1006.6 hPa 0 mm - 0 W/m² -
1788395700 30° C 32% 1006.6 hPa 0 mm - 0 W/m² -
1788395400 30° C 31% 1006.7 hPa 0 mm - 0 W/m² -

* Rain latest hour (hover to see other rain measurements)
** Current wind speed in m/s (hover to see current wind gust speed)